Time;durP1;ratioP1;P1;durP2;ratioP2;P2;SDS_P1;SDS_P2;PMS_P1;PMS_P2;Temp;Humidity;BMP_temperature;BMP_pressure;BME280_temperature;BME280_humidity;BME280_pressure;Samples;Min_cycle;Max_cycle;Signal;HPM_P1;HPM_P2
2022/07/02 00:00:18;;;;;;;2.20;1.92;;;25.50;72.20;;;;;;4993203;28;20068;-76
2022/07/02 00:02:48;;;;;;;7.00;2.47;;;25.50;72.50;;;;;;5010423;28;20109;-76
2022/07/02 00:05:19;;;;;;;2.05;1.75;;;25.50;72.30;;;;;;4993088;28;20053;-76
2022/07/02 00:07:45;;;;;;;2.13;1.90;;;25.50;72.20;;;;;;5010876;28;20488;-76
2022/07/02 00:10:12;;;;;;;3.30;1.80;;;25.50;71.70;;;;;;4992594;28;20112;-76
2022/07/02 00:12:38;;;;;;;3.97;1.42;;;25.50;71.70;;;;;;5010301;28;20034;-76
2022/07/02 00:15:04;;;;;;;1.98;1.60;;;25.50;71.30;;;;;;5010150;28;20038;-76
2022/07/02 00:17:29;;;;;;;2.08;1.92;;;25.60;70.90;;;;;;5010887;28;20381;-75
2022/07/02 00:19:56;;;;;;;3.15;1.92;;;25.60;70.80;;;;;;5013607;28;20017;-78
2022/07/02 00:22:22;;;;;;;2.70;2.03;;;25.60;70.20;;;;;;5013385;28;20080;-77
2022/07/02 00:24:47;;;;;;;2.65;1.90;;;25.50;70.10;;;;;;5009956;28;20018;-78
2022/07/02 00:27:17;;;;;;;1.88;1.77;;;25.50;70.40;;;;;;5010621;28;20080;-78
2022/07/02 00:29:56;;;;;;;3.30;2.05;;;25.50;70.60;;;;;;5010951;28;20113;-78
2022/07/02 00:32:28;;;;;;;3.28;2.15;;;25.60;70.60;;;;;;5028534;28;20025;-79
2022/07/02 00:34:55;;;;;;;7.32;2.05;;;25.60;70.50;;;;;;5013112;28;20017;-78
2022/07/02 00:37:22;;;;;;;2.05;1.75;;;25.60;70.60;;;;;;5029932;28;20083;-78
2022/07/02 00:39:48;;;;;;;1.88;1.77;;;25.50;70.30;;;;;;5029787;28;20028;-78
2022/07/02 00:42:14;;;;;;;2.33;2.13;;;25.50;70.60;;;;;;5025248;28;20022;-78
2022/07/02 00:44:41;;;;;;;2.45;1.77;;;25.50;70.60;;;;;;4992896;28;20028;-78
2022/07/02 00:47:09;;;;;;;2.13;2.03;;;25.50;70.60;;;;;;5012905;28;20033;-77
2022/07/02 00:49:36;;;;;;;1.80;1.70;;;25.50;70.90;;;;;;4995537;28;20064;-78
2022/07/02 00:52:04;;;;;;;2.60;1.98;;;25.50;71.60;;;;;;4992129;28;20030;-78
2022/07/02 00:54:30;;;;;;;2.47;2.28;;;25.60;71.00;;;;;;4992926;28;20026;-79
2022/07/02 00:56:56;;;;;;;2.20;2.10;;;25.50;70.80;;;;;;5011135;28;20744;-78
2022/07/02 00:59:24;;;;;;;2.75;2.20;;;25.50;70.80;;;;;;4992935;28;20026;-78
2022/07/02 01:01:50;;;;;;;3.53;1.88;;;25.50;70.80;;;;;;5012952;28;20045;-78
2022/07/02 01:04:17;;;;;;;3.38;1.98;;;25.50;70.80;;;;;;5014276;28;20061;-78
2022/07/02 01:06:44;;;;;;;2.13;1.92;;;25.50;71.00;;;;;;5013581;28;20028;-78
2022/07/02 01:12:00;;;;;;;2.13;2.03;;;25.40;71.10;;;;;;4995486;28;20134;-78
2022/07/02 01:14:27;;;;;;;2.95;2.03;;;25.40;71.20;;;;;;4997328;28;20026;-76
2022/07/02 01:16:54;;;;;;;3.45;2.10;;;25.40;71.20;;;;;;4996995;28;20026;-76
2022/07/02 01:19:21;;;;;;;2.38;2.17;;;25.40;71.10;;;;;;4996943;28;20022;-76
2022/07/02 01:22:15;;;;;;;3.75;1.92;;;25.40;71.20;;;;;;4979430;28;20030;-76
2022/07/02 01:24:42;;;;;;;3.15;2.20;;;25.40;71.20;;;;;;4979251;28;20121;-76
2022/07/02 01:27:08;;;;;;;3.78;1.95;;;25.40;71.00;;;;;;4996855;28;20044;-76
2022/07/02 01:29:34;;;;;;;2.08;1.88;;;25.40;70.80;;;;;;4979129;28;20058;-76
2022/07/02 01:32:00;;;;;;;3.80;1.92;;;25.50;70.80;;;;;;4996853;28;20109;-76
2022/07/02 01:34:27;;;;;;;1.83;1.65;;;25.50;70.50;;;;;;4996903;28;20041;-76
2022/07/02 01:36:54;;;;;;;2.10;1.95;;;25.50;70.50;;;;;;4981095;28;20061;-76
2022/07/02 01:39:24;;;;;;;4.35;2.03;;;25.50;70.00;;;;;;4998615;28;20022;-76
2022/07/02 01:41:50;;;;;;;5.70;2.33;;;25.50;69.70;;;;;;5016025;28;20085;-76
2022/07/02 01:44:15;;;;;;;3.25;1.77;;;25.50;69.70;;;;;;5016261;28;20472;-76
2022/07/02 01:46:44;;;;;;;3.38;1.80;;;25.50;69.50;;;;;;5016196;28;20025;-77
2022/07/02 01:49:10;;;;;;;2.45;1.85;;;25.60;69.30;;;;;;5015885;28;20420;-76
2022/07/02 01:51:36;;;;;;;3.08;1.85;;;25.50;69.10;;;;;;4997709;28;20088;-76
2022/07/02 01:54:02;;;;;;;6.38;1.88;;;25.60;69.40;;;;;;5015158;28;20041;-76
2022/07/02 01:56:34;;;;;;;8.38;2.17;;;25.50;69.30;;;;;;4997749;28;20053;-76
2022/07/02 01:59:00;;;;;;;2.50;2.08;;;25.50;69.20;;;;;;4997690;28;20124;-76
2022/07/02 02:01:26;;;;;;;2.85;2.17;;;25.50;69.20;;;;;;4997393;28;20510;-76
2022/07/02 02:03:52;;;;;;;1.63;1.52;;;25.50;69.00;;;;;;5015038;28;20042;-76
2022/07/02 02:06:18;;;;;;;4.47;1.90;;;25.50;69.00;;;;;;4997147;28;20638;-76
2022/07/02 02:08:44;;;;;;;1.85;1.70;;;25.40;68.90;;;;;;5014980;28;20030;-77
2022/07/02 02:11:10;;;;;;;3.08;1.60;;;25.50;68.80;;;;;;5014842;28;20029;-77
2022/07/02 02:13:36;;;;;;;2.83;1.75;;;25.40;68.80;;;;;;4997235;28;20038;-76
2022/07/02 02:16:01;;;;;;;4.78;2.35;;;25.40;68.70;;;;;;5015036;28;20361;-77
2022/07/02 02:18:27;;;;;;;5.28;1.73;;;25.40;68.90;;;;;;5015452;28;20026;-76
2022/07/02 02:20:53;;;;;;;1.55;1.40;;;25.40;68.40;;;;;;5015404;28;20353;-76
2022/07/02 02:23:19;;;;;;;4.00;1.70;;;25.30;68.10;;;;;;4989285;28;20030;-76
2022/07/02 02:25:44;;;;;;;1.73;1.60;;;25.30;68.20;;;;;;4977932;28;20496;-76
2022/07/02 02:28:10;;;;;;;3.38;1.67;;;25.30;68.20;;;;;;4995791;28;20072;-76
2022/07/02 02:30:36;;;;;;;3.25;1.90;;;25.30;67.80;;;;;;4995484;28;20022;-77
2022/07/02 02:33:02;;;;;;;2.58;1.83;;;25.30;67.30;;;;;;4977887;28;20037;-76
2022/07/02 02:35:28;;;;;;;2.78;1.70;;;25.30;67.00;;;;;;4978310;28;20477;-76
2022/07/02 02:37:53;;;;;;;6.70;2.00;;;25.30;67.00;;;;;;4995463;28;20034;-76
2022/07/02 02:40:19;;;;;;;2.47;1.95;;;25.30;67.00;;;;;;4994640;28;20507;-76
2022/07/02 02:42:45;;;;;;;2.45;1.75;;;25.30;66.60;;;;;;4994061;28;20030;-75
2022/07/02 02:45:11;;;;;;;2.75;1.90;;;25.30;66.60;;;;;;4995580;28;20472;-77
2022/07/02 02:47:36;;;;;;;4.53;1.77;;;25.30;66.70;;;;;;4994620;28;20033;-76
2022/07/02 02:50:04;;;;;;;6.05;1.92;;;25.30;66.50;;;;;;4995096;28;20500;-77
2022/07/02 02:52:30;;;;;;;4.20;1.35;;;25.20;66.70;;;;;;4995449;28;20113;-76
2022/07/02 02:54:56;;;;;;;1.83;1.67;;;25.30;66.60;;;;;;4977820;28;20117;-75
2022/07/02 02:57:21;;;;;;;5.72;2.25;;;25.20;66.80;;;;;;4994756;28;20030;-76
2022/07/02 02:59:47;;;;;;;7.20;1.50;;;25.20;67.00;;;;;;4977547;28;20404;-77
2022/07/02 03:02:13;;;;;;;3.53;1.90;;;25.10;66.80;;;;;;4995075;28;20031;-77
2022/07/02 03:04:39;;;;;;;3.15;1.58;;;25.10;66.90;;;;;;4986766;28;20136;-76
2022/07/02 03:07:05;;;;;;;6.28;1.70;;;25.10;66.70;;;;;;4996564;28;20063;-77
2022/07/02 03:09:31;;;;;;;1.25;1.15;;;25.10;66.30;;;;;;4997098;28;20032;-77
2022/07/02 03:11:57;;;;;;;2.15;1.40;;;25.00;66.20;;;;;;4997139;28;20030;-76
2022/07/02 03:14:23;;;;;;;2.58;1.95;;;25.00;66.00;;;;;;4996949;28;20034;-77
2022/07/02 03:16:48;;;;;;;2.60;1.88;;;25.10;66.00;;;;;;4996505;28;20548;-76
2022/07/02 03:19:14;;;;;;;1.35;1.25;;;25.10;65.40;;;;;;5014450;28;20030;-76
2022/07/02 03:21:40;;;;;;;6.65;1.67;;;25.10;65.20;;;;;;4996790;28;20531;-76
2022/07/02 03:24:06;;;;;;;1.33;1.23;;;25.10;65.20;;;;;;5013625;28;20476;-76
2022/07/02 03:26:32;;;;;;;1.40;1.30;;;25.00;65.00;;;;;;5013943;28;20040;-76
2022/07/02 03:28:58;;;;;;;2.65;1.50;;;25.10;65.30;;;;;;5014132;28;20026;-76
2022/07/02 03:31:24;;;;;;;1.77;1.42;;;25.00;65.50;;;;;;5014317;28;20026;-76
2022/07/02 03:33:49;;;;;;;1.67;1.58;;;25.00;65.50;;;;;;4996542;28;20052;-76
2022/07/02 03:36:15;;;;;;;4.03;1.80;;;25.00;65.30;;;;;;4989284;28;20042;-77
2022/07/02 03:38:41;;;;;;;1.48;1.38;;;25.00;65.80;;;;;;4993158;28;20018;-76
2022/07/02 03:41:08;;;;;;;1.83;1.73;;;25.00;65.40;;;;;;4993305;28;20068;-77
2022/07/02 03:43:34;;;;;;;3.20;1.80;;;25.00;65.70;;;;;;4993777;28;20068;-77
2022/07/02 03:46:00;;;;;;;1.45;1.35;;;25.00;65.40;;;;;;4992829;28;20045;-77
2022/07/02 03:48:26;;;;;;;1.75;1.65;;;25.00;65.50;;;;;;4993226;28;20420;-77
2022/07/02 03:50:52;;;;;;;3.00;1.40;;;25.00;65.70;;;;;;4992838;28;20032;-77
2022/07/02 03:53:17;;;;;;;2.72;1.60;;;24.90;65.40;;;;;;5010566;28;20034;-76
2022/07/02 03:55:43;;;;;;;2.28;1.88;;;24.90;65.70;;;;;;4992255;28;20091;-78
2022/07/02 03:58:09;;;;;;;1.85;1.75;;;24.90;66.00;;;;;;4993161;28;20076;-77
2022/07/02 04:00:35;;;;;;;1.75;1.65;;;24.90;66.30;;;;;;5010534;28;20010;-76
2022/07/02 04:03:00;;;;;;;1.33;1.33;;;24.90;65.50;;;;;;5011264;28;20056;-76
2022/07/02 04:05:26;;;;;;;1.77;1.40;;;24.90;65.40;;;;;;4994814;28;20076;-76
2022/07/02 04:07:52;;;;;;;1.63;1.52;;;24.90;65.70;;;;;;5013427;28;20022;-76
2022/07/02 04:10:18;;;;;;;2.78;1.45;;;24.80;65.50;;;;;;5010342;28;20029;-76
2022/07/02 04:12:43;;;;;;;2.17;1.40;;;24.80;65.80;;;;;;5010961;28;20124;-77
2022/07/02 04:15:09;;;;;;;1.75;1.27;;;24.70;66.00;;;;;;4992979;28;20018;-77
2022/07/02 04:17:35;;;;;;;1.70;1.60;;;24.70;66.20;;;;;;5010217;28;20147;-77
2022/07/02 04:20:01;;;;;;;2.53;1.10;;;24.70;66.40;;;;;;5010747;28;20112;-76
2022/07/02 04:22:28;;;;;;;2.83;1.60;;;24.70;66.10;;;;;;4992583;28;20021;-76
2022/07/02 04:24:54;;;;;;;1.10;1.10;;;24.70;66.00;;;;;;5010529;28;20072;-76
2022/07/02 04:27:20;;;;;;;9.00;1.33;;;24.70;65.90;;;;;;5010230;28;20034;-76
2022/07/02 04:29:47;;;;;;;1.88;1.65;;;24.70;66.00;;;;;;5010350;28;20014;-77
2022/07/02 04:32:13;;;;;;;1.80;1.50;;;24.60;66.40;;;;;;5012899;28;20052;-76
2022/07/02 04:34:39;;;;;;;2.88;1.73;;;24.60;66.10;;;;;;4995565;28;20029;-76
2022/07/02 04:37:05;;;;;;;2.97;1.40;;;24.60;66.00;;;;;;4995645;28;20037;-76
2022/07/02 04:39:30;;;;;;;1.50;1.40;;;24.70;66.10;;;;;;4995475;28;20487;-77
2022/07/02 04:41:57;;;;;;;7.88;1.52;;;24.70;66.20;;;;;;5013037;28;20021;-77
2022/07/02 04:44:24;;;;;;;3.50;1.85;;;24.80;66.20;;;;;;4995559;28;20033;-76
2022/07/02 04:46:50;;;;;;;1.98;1.80;;;24.80;65.80;;;;;;5012971;28;20076;-76
2022/07/02 04:49:15;;;;;;;1.42;1.35;;;24.80;65.80;;;;;;5013074;28;20072;-76
2022/07/02 04:51:41;;;;;;;1.83;1.58;;;24.90;65.90;;;;;;5012985;28;20022;-76
2022/07/02 04:54:07;;;;;;;2.75;1.35;;;24.90;66.10;;;;;;4995096;28;20064;-76
2022/07/02 04:56:33;;;;;;;3.25;1.40;;;24.90;66.00;;;;;;4995124;28;20476;-76
2022/07/02 04:58:59;;;;;;;1.73;1.63;;;25.00;66.40;;;;;;5012793;28;20050;-76
2022/07/02 05:01:25;;;;;;;1.85;1.52;;;25.00;66.10;;;;;;4995424;28;20077;-76
2022/07/02 05:03:51;;;;;;;1.90;1.80;;;25.00;66.00;;;;;;5012793;28;20149;-76
2022/07/02 05:06:18;;;;;;;2.63;1.23;;;25.00;66.80;;;;;;4995279;28;20034;-76
2022/07/02 05:08:44;;;;;;;6.30;1.45;;;25.10;66.30;;;;;;4995393;28;20710;-76
2022/07/02 05:11:10;;;;;;;2.22;1.30;;;25.10;66.10;;;;;;5012873;28;20061;-77
2022/07/02 05:13:36;;;;;;;3.08;1.25;;;25.20;66.30;;;;;;4994966;28;20030;-76
2022/07/02 05:16:02;;;;;;;4.90;1.92;;;25.20;65.70;;;;;;5012610;28;20516;-77
2022/07/02 05:18:27;;;;;;;1.52;1.42;;;25.30;65.80;;;;;;5012684;28;20076;-77
2022/07/02 05:20:53;;;;;;;1.17;1.15;;;25.30;66.00;;;;;;5012920;28;20022;-76
2022/07/02 05:23:19;;;;;;;2.05;1.60;;;25.30;65.30;;;;;;5012742;28;20029;-76
2022/07/02 05:25:44;;;;;;;3.15;1.10;;;25.30;65.60;;;;;;5012592;28;20037;-76
2022/07/02 05:28:10;;;;;;;3.95;1.50;;;25.40;65.30;;;;;;5012739;28;20387;-76
2022/07/02 05:30:36;;;;;;;1.05;1.02;;;25.40;66.00;;;;;;4995001;28;20575;-76
2022/07/02 05:33:02;;;;;;;2.60;1.20;;;25.50;65.10;;;;;;5012595;28;20034;-77
2022/07/02 05:35:27;;;;;;;1.98;1.40;;;25.50;65.50;;;;;;5007274;28;20022;-77
2022/07/02 05:37:53;;;;;;;2.45;1.40;;;25.60;64.80;;;;;;4992313;28;20075;-76
2022/07/02 05:40:20;;;;;;;2.53;1.27;;;25.60;64.50;;;;;;5009227;28;20014;-76
2022/07/02 05:42:46;;;;;;;1.95;1.55;;;25.70;64.40;;;;;;5009090;28;20019;-76
2022/07/02 05:45:11;;;;;;;1.98;1.77;;;25.70;65.10;;;;;;5009873;28;20033;-76
2022/07/02 05:47:37;;;;;;;1.33;1.20;;;25.80;64.10;;;;;;4992898;28;20029;-76
2022/07/02 05:50:03;;;;;;;2.30;1.25;;;25.80;64.40;;;;;;4995407;28;20064;-76
2022/07/02 05:52:29;;;;;;;2.42;1.70;;;25.90;64.10;;;;;;5013104;28;20033;-76
2022/07/02 05:54:55;;;;;;;6.45;1.85;;;26.00;64.60;;;;;;4995275;28;20030;-77
2022/07/02 05:57:20;;;;;;;1.85;1.00;;;26.00;63.90;;;;;;4995620;28;20018;-77
2022/07/02 05:59:46;;;;;;;5.57;1.60;;;26.10;64.50;;;;;;4995168;28;20037;-77
2022/07/02 06:02:12;;;;;;;1.75;1.65;;;26.20;63.40;;;;;;5012714;28;20030;-77
2022/07/02 06:04:37;;;;;;;1.38;1.27;;;26.30;63.90;;;;;;5013080;28;20054;-76
2022/07/02 06:09:48;;;;;;;2.05;1.30;;;26.40;63.10;;;;;;5014161;28;20045;-76
2022/07/02 06:12:14;;;;;;;1.13;1.10;;;26.50;63.20;;;;;;5011603;28;20030;-76
2022/07/02 06:14:40;;;;;;;2.90;1.52;;;26.50;62.90;;;;;;4991516;28;20023;-77
2022/07/02 06:17:05;;;;;;;4.55;1.40;;;26.60;63.80;;;;;;4992002;28;20023;-77
2022/07/02 06:19:31;;;;;;;1.67;1.58;;;26.60;63.10;;;;;;4991561;28;20052;-76
2022/07/02 06:21:57;;;;;;;1.90;1.40;;;26.60;62.80;;;;;;4991676;28;20022;-77
2022/07/02 06:24:22;;;;;;;1.63;1.30;;;26.70;62.70;;;;;;4993360;28;20492;-76
2022/07/02 06:26:48;;;;;;;1.80;1.48;;;26.80;62.90;;;;;;4992723;28;20026;-76
2022/07/02 06:29:14;;;;;;;1.42;1.25;;;26.80;62.60;;;;;;4993051;28;20026;-76
2022/07/02 06:31:40;;;;;;;1.70;1.60;;;26.90;62.80;;;;;;4991938;28;20049;-78
2022/07/02 06:34:05;;;;;;;1.63;1.50;;;26.90;62.40;;;;;;4995701;28;20543;-78
2022/07/02 06:36:31;;;;;;;3.50;1.60;;;27.00;62.40;;;;;;4995714;28;20022;-78
2022/07/02 06:38:57;;;;;;;2.65;1.52;;;27.10;62.10;;;;;;5014410;28;20034;-77
2022/07/02 06:44:07;;;;;;;2.97;1.70;;;27.20;62.30;;;;;;5015096;28;20028;-78
2022/07/02 06:46:34;;;;;;;1.90;1.50;;;27.30;62.00;;;;;;5014960;28;20064;-77
2022/07/02 06:49:01;;;;;;;1.98;1.20;;;27.40;62.20;;;;;;4997508;28;20065;-77
2022/07/02 06:51:27;;;;;;;2.42;1.63;;;27.40;61.30;;;;;;5015076;28;20029;-78
2022/07/02 06:54:00;;;;;;;1.33;1.25;;;27.50;61.60;;;;;;5014902;28;20022;-78
2022/07/02 06:56:29;;;;;;;1.60;1.50;;;27.50;61.60;;;;;;5014824;28;20076;-78
2022/07/02 06:58:56;;;;;;;2.90;1.75;;;27.60;61.70;;;;;;5013895;28;20101;-78
2022/07/02 07:01:22;;;;;;;1.92;1.75;;;27.70;61.10;;;;;;5014796;28;20112;-78
2022/07/02 07:03:48;;;;;;;1.77;1.63;;;27.70;61.30;;;;;;5014588;28;20025;-78
2022/07/02 07:06:14;;;;;;;7.55;1.60;;;27.70;61.10;;;;;;5014816;28;20388;-78
2022/07/02 07:08:39;;;;;;;1.52;1.40;;;27.80;61.10;;;;;;5031229;28;20022;-77
2022/07/02 07:11:05;;;;;;;1.65;1.55;;;27.90;62.90;;;;;;5034500;28;20029;-77
2022/07/02 07:13:31;;;;;;;2.28;1.90;;;27.90;62.00;;;;;;5034355;28;20022;-78
2022/07/02 07:15:57;;;;;;;6.72;2.40;;;28.00;63.50;;;;;;5016497;28;20048;-77
2022/07/02 07:18:23;;;;;;;6.70;2.47;;;28.00;67.30;;;;;;5016337;28;20029;-77
2022/07/02 07:20:50;;;;;;;5.13;2.70;;;28.00;70.40;;;;;;5034378;28;20108;-77
2022/07/02 07:23:15;;;;;;;3.10;2.50;;;28.00;72.50;;;;;;5016460;28;20040;-78
2022/07/02 07:25:41;;;;;;;6.75;2.95;;;28.10;75.10;;;;;;5034041;28;20108;-78
2022/07/02 07:28:07;;;;;;;6.72;2.45;;;28.10;75.30;;;;;;5034272;28;20383;-77
2022/07/02 07:30:33;;;;;;;4.93;2.63;;;28.20;74.00;;;;;;5034231;28;20026;-78
2022/07/02 07:32:58;;;;;;;5.00;2.92;;;28.30;74.40;;;;;;5016276;28;20387;-77
2022/07/02 07:35:24;;;;;;;6.18;2.67;;;28.30;76.00;;;;;;5033965;28;20021;-78
2022/07/02 07:38:00;;;;;;;3.40;2.50;;;28.30;75.30;;;;;;5024029;28;20384;-77
2022/07/02 07:40:26;;;;;;;8.57;2.75;;;28.50;74.60;;;;;;5014207;28;20029;-78
2022/07/02 07:42:52;;;;;;;10.30;2.55;;;28.50;75.00;;;;;;4996665;28;20113;-77
2022/07/02 07:45:18;;;;;;;7.50;2.60;;;28.50;74.50;;;;;;5014253;28;20022;-77
2022/07/02 07:47:44;;;;;;;6.32;2.78;;;28.50;72.70;;;;;;4996579;28;20022;-77
2022/07/02 07:50:10;;;;;;;5.05;3.08;;;28.50;75.00;;;;;;5014135;28;20021;-77
2022/07/02 07:52:35;;;;;;;7.72;2.95;;;28.50;75.10;;;;;;5014064;28;20014;-77
2022/07/02 07:55:01;;;;;;;7.05;2.72;;;28.50;76.00;;;;;;5014037;28;20476;-77
2022/07/02 07:57:27;;;;;;;4.28;2.33;;;28.60;76.30;;;;;;4996215;28;20022;-77
2022/07/02 07:59:53;;;;;;;3.60;2.72;;;28.70;76.30;;;;;;4996313;28;20017;-78
2022/07/02 08:02:19;;;;;;;3.08;2.17;;;28.70;75.30;;;;;;4996176;28;20030;-77
2022/07/02 08:04:45;;;;;;;7.13;2.40;;;28.80;75.10;;;;;;4992569;28;20389;-78
2022/07/02 08:07:11;;;;;;;6.25;2.55;;;28.90;74.70;;;;;;5011328;28;20036;-78
2022/07/02 08:09:36;;;;;;;13.48;2.85;;;29.00;71.70;;;;;;5010732;28;20503;-78
2022/07/02 08:12:03;;;;;;;8.20;2.60;;;29.00;72.30;;;;;;5011525;28;20555;-78
2022/07/02 08:14:28;;;;;;;11.95;3.38;;;29.00;71.60;;;;;;4993318;28;20029;-78
2022/07/02 08:16:54;;;;;;;6.72;2.90;;;29.10;72.90;;;;;;5011065;28;20084;-78
2022/07/02 08:19:20;;;;;;;7.20;2.72;;;29.20;72.20;;;;;;5011342;28;20025;-78
2022/07/02 08:21:46;;;;;;;6.72;2.53;;;29.20;73.00;;;;;;4992900;28;20476;-78
2022/07/02 08:24:12;;;;;;;5.40;2.88;;;29.20;73.70;;;;;;5011727;28;20037;-78
2022/07/02 08:26:38;;;;;;;5.70;2.90;;;29.20;74.10;;;;;;4996056;28;20390;-78
2022/07/02 08:29:03;;;;;;;7.25;2.88;;;29.20;73.80;;;;;;5013494;28;20040;-77
2022/07/02 08:31:29;;;;;;;10.82;3.63;;;29.20;73.80;;;;;;4995939;28;20115;-78
2022/07/02 08:33:55;;;;;;;4.43;2.90;;;29.20;72.90;;;;;;5013283;28;20025;-77
2022/07/02 08:36:21;;;;;;;10.52;3.17;;;29.30;73.00;;;;;;4976202;28;20025;-78
2022/07/02 08:38:46;;;;;;;9.95;2.72;;;29.20;73.60;;;;;;4991170;28;20034;-78
2022/07/02 08:41:13;;;;;;;5.97;3.15;;;29.20;74.60;;;;;;4990988;28;20023;-77
2022/07/02 08:43:41;;;;;;;4.70;3.10;;;29.30;73.10;;;;;;4991593;28;20421;-78
2022/07/02 08:46:07;;;;;;;5.10;2.50;;;29.30;72.50;;;;;;4991080;28;20026;-78
2022/07/02 08:48:34;;;;;;;7.78;3.35;;;29.40;73.20;;;;;;4991159;28;20030;-78
2022/07/02 08:51:00;;;;;;;4.97;2.63;;;29.60;73.30;;;;;;4991265;28;20030;-78
2022/07/02 08:53:26;;;;;;;6.40;2.70;;;29.70;73.20;;;;;;5001682;28;20026;-78
2022/07/02 08:55:54;;;;;;;6.88;2.72;;;29.60;72.90;;;;;;5010814;28;20033;-77
2022/07/02 08:58:20;;;;;;;4.57;2.90;;;29.70;74.20;;;;;;5011020;28;20026;-78
2022/07/02 09:00:48;;;;;;;3.85;2.90;;;29.70;74.20;;;;;;5010490;28;20053;-78
2022/07/02 09:03:18;;;;;;;4.13;3.10;;;29.80;73.00;;;;;;4992816;28;20033;-77
2022/07/02 09:05:45;;;;;;;5.70;3.08;;;29.70;73.10;;;;;;5004091;28;20042;-78
2022/07/02 09:08:11;;;;;;;4.70;2.30;;;29.80;75.20;;;;;;5012458;28;20029;-78
2022/07/02 09:10:38;;;;;;;6.15;2.97;;;29.90;73.90;;;;;;5031616;28;20624;-77
2022/07/02 09:13:06;;;;;;;4.97;2.63;;;29.80;72.80;;;;;;5014995;28;20048;-78
2022/07/02 09:15:34;;;;;;;8.75;3.33;;;29.90;75.00;;;;;;5014969;28;20088;-78
2022/07/02 09:17:59;;;;;;;9.63;3.50;;;29.90;73.70;;;;;;5032451;28;20022;-77
2022/07/02 09:20:25;;;;;;;6.40;3.53;;;30.00;73.50;;;;;;5032653;28;20036;-77
2022/07/02 09:22:52;;;;;;;6.38;3.15;;;30.00;71.60;;;;;;5034839;28;20085;-76
2022/07/02 09:25:20;;;;;;;4.18;3.55;;;29.90;72.20;;;;;;5036238;28;20029;-77
2022/07/02 09:27:55;;;;;;;10.32;5.30;;;29.70;72.30;;;;;;5006382;28;20013;-76
2022/07/02 09:30:21;;;;;;;10.18;3.30;;;29.70;76.10;;;;;;4996020;28;20030;-78
2022/07/02 09:32:47;;;;;;;11.95;3.22;;;29.70;72.50;;;;;;5013993;28;20018;-78
2022/07/02 09:35:21;;;;;;;5.47;3.20;;;29.80;72.10;;;;;;4996348;28;20033;-78
2022/07/02 09:37:48;;;;;;;6.78;3.40;;;29.80;72.00;;;;;;5013725;28;20108;-77
2022/07/02 09:40:14;;;;;;;9.15;3.03;;;29.80;74.80;;;;;;5012118;28;20509;-77
2022/07/02 09:42:46;;;;;;;8.18;3.20;;;30.00;72.00;;;;;;5013501;28;20048;-78
2022/07/02 09:45:13;;;;;;;6.47;2.92;;;30.00;71.40;;;;;;5013226;28;20049;-78
2022/07/02 09:47:43;;;;;;;9.77;3.10;;;30.10;72.90;;;;;;4994893;28;20033;-78
2022/07/02 09:50:11;;;;;;;7.60;2.92;;;30.10;73.00;;;;;;4995631;28;20018;-77
2022/07/02 09:52:54;;;;;;;6.70;2.85;;;30.00;68.10;;;;;;5012395;28;20511;-78
2022/07/02 09:55:24;;;;;;;5.20;3.33;;;30.00;70.80;;;;;;5013113;28;20410;-78
2022/07/02 09:57:56;;;;;;;8.50;3.47;;;30.10;69.40;;;;;;5016074;28;20037;-78
2022/07/02 10:00:24;;;;;;;4.53;2.97;;;30.10;69.90;;;;;;4998362;28;20018;-78
2022/07/02 10:02:55;;;;;;;7.00;3.13;;;30.40;72.00;;;;;;5016011;28;20030;-78
2022/07/02 10:05:31;;;;;;;11.25;3.55;;;30.40;71.30;;;;;;4985916;28;20512;-78
2022/07/02 10:07:58;;;;;;;3.95;2.70;;;30.40;69.40;;;;;;5006937;28;20041;-78
2022/07/02 10:10:38;;;;;;;4.35;2.65;;;30.50;71.50;;;;;;5015943;28;20033;-78
2022/07/02 10:13:05;;;;;;;4.97;2.58;;;30.50;72.40;;;;;;4998234;28;20367;-78
2022/07/02 10:15:32;;;;;;;4.32;2.90;;;30.50;71.70;;;;;;5015628;28;20392;-78
2022/07/02 10:18:01;;;;;;;3.20;2.88;;;30.70;71.00;;;;;;5015741;28;20026;-78
2022/07/02 10:20:29;;;;;;;6.18;2.78;;;30.80;69.30;;;;;;5015615;28;20006;-78
2022/07/02 10:22:59;;;;;;;4.93;2.92;;;30.80;64.70;;;;;;4997894;28;20030;-78
2022/07/02 10:25:25;;;;;;;3.35;2.65;;;30.90;67.30;;;;;;5015490;28;20029;-78
2022/07/02 10:28:00;;;;;;;2.58;2.35;;;31.10;68.70;;;;;;5015552;28;20022;-79
2022/07/02 10:32:55;;;;;;;2.78;2.58;;;31.30;68.40;;;;;;5015214;28;20080;-78
2022/07/02 10:35:23;;;;;;;7.05;3.25;;;31.30;64.60;;;;;;5015031;28;20021;-77
2022/07/02 10:37:59;;;;;;;6.13;3.20;;;31.30;64.30;;;;;;5024931;28;20067;-78
2022/07/02 10:40:25;;;;;;;5.50;3.05;;;31.40;63.10;;;;;;5017289;28;20393;-78
2022/07/02 10:42:51;;;;;;;6.80;3.42;;;31.30;63.40;;;;;;5015214;28;20045;-78
2022/07/02 10:45:19;;;;;;;7.15;3.38;;;31.40;62.80;;;;;;4995356;28;20026;-78
2022/07/02 10:48:05;;;;;;;6.20;3.88;;;31.40;62.70;;;;;;5012339;28;20037;-78
2022/07/02 10:50:39;;;;;;;5.75;3.15;;;31.60;63.50;;;;;;5012641;28;20025;-77
2022/07/02 10:53:13;;;;;;;7.35;2.80;;;31.80;61.50;;;;;;4994773;28;20053;-78
2022/07/02 10:55:45;;;;;;;4.53;3.05;;;31.80;60.70;;;;;;5012154;28;20068;-78
2022/07/02 10:58:18;;;;;;;;;;;31.80;62.70;;;;;;5012521;28;20109;-78
2022/07/02 11:00:43;;;;;;;11.80;3.95;;;31.90;63.20;;;;;;5012090;28;19905;-77
2022/07/02 11:03:14;;;;;;;6.10;2.70;;;31.90;60.60;;;;;;5014529;28;20037;-78
2022/07/02 11:06:01;;;;;;;6.05;2.97;;;32.00;60.90;;;;;;5013262;28;20137;-78
2022/07/02 11:08:45;;;;;;;3.65;2.50;;;32.10;62.00;;;;;;4998959;28;20396;-78
2022/07/02 11:11:27;;;;;;;3.90;2.80;;;32.20;62.00;;;;;;5001053;28;20080;-78
2022/07/02 11:14:07;;;;;;;8.95;2.50;;;32.40;60.30;;;;;;5011825;28;20502;-78
2022/07/02 11:19:25;;;;;;;3.22;2.95;;;32.50;59.80;;;;;;5011331;28;20706;-78
2022/07/02 11:21:54;;;;;;;3.88;3.10;;;32.40;58.10;;;;;;4993957;28;20037;-78
2022/07/02 11:24:40;;;;;;;9.73;2.67;;;32.40;57.80;;;;;;5011487;28;20027;-78
2022/07/02 11:27:06;;;;;;;4.78;2.90;;;32.40;57.30;;;;;;4993778;28;20034;-78
2022/07/02 11:29:32;;;;;;;7.28;2.60;;;32.40;57.40;;;;;;4993671;28;20029;-78
2022/07/02 11:31:58;;;;;;;4.03;2.53;;;32.60;56.70;;;;;;5013187;28;20451;-78
2022/07/02 11:34:29;;;;;;;2.20;2.10;;;32.60;55.50;;;;;;5014051;28;20053;-78
2022/07/02 11:36:55;;;;;;;4.95;2.78;;;32.80;55.60;;;;;;5014198;28;20028;-78
2022/07/02 11:39:23;;;;;;;3.00;2.33;;;32.80;56.00;;;;;;4996483;28;20021;-78
2022/07/02 11:41:49;;;;;;;3.13;2.42;;;32.90;56.20;;;;;;4996532;28;20030;-78
2022/07/02 11:44:28;;;;;;;4.65;2.67;;;33.00;54.80;;;;;;5013652;28;20075;-78
2022/07/02 11:46:57;;;;;;;8.00;2.50;;;33.10;54.40;;;;;;5013565;28;20025;-78
2022/07/02 11:49:27;;;;;;;4.90;2.58;;;33.20;55.00;;;;;;5013901;28;20030;-77
2022/07/02 11:51:54;;;;;;;5.20;2.72;;;33.20;54.70;;;;;;5013969;28;20022;-78
2022/07/02 11:54:21;;;;;;;5.50;2.88;;;33.30;54.80;;;;;;5014012;28;20116;-78
2022/07/02 11:56:49;;;;;;;3.78;2.50;;;33.30;54.40;;;;;;5013882;28;20026;-79
2022/07/02 11:59:18;;;;;;;7.32;2.70;;;33.40;55.10;;;;;;5013948;28;20022;-78
2022/07/02 12:01:45;;;;;;;4.22;2.10;;;33.40;53.90;;;;;;5013882;28;20014;-78
2022/07/02 12:04:13;;;;;;;3.45;2.65;;;33.60;53.50;;;;;;5013539;28;20101;-78
2022/07/02 12:06:44;;;;;;;3.28;2.22;;;33.60;52.80;;;;;;5013706;28;20104;-78
2022/07/02 12:09:12;;;;;;;6.68;2.83;;;33.80;53.60;;;;;;4994023;28;20034;-78
2022/07/02 12:11:40;;;;;;;4.45;2.72;;;33.90;53.50;;;;;;4993864;28;20514;-78
2022/07/02 12:14:07;;;;;;;3.47;2.38;;;34.00;54.20;;;;;;4993805;28;20033;-78
2022/07/02 12:16:35;;;;;;;3.33;2.42;;;34.10;52.20;;;;;;4976307;28;20038;-77
2022/07/02 12:19:02;;;;;;;3.70;2.60;;;34.30;51.10;;;;;;4993904;28;20050;-78
2022/07/02 12:21:35;;;;;;;2.90;2.70;;;34.40;51.40;;;;;;4993790;28;20026;-77
2022/07/02 12:24:18;;;;;;;4.55;2.92;;;34.50;50.80;;;;;;4976193;28;20032;-77
2022/07/02 12:26:45;;;;;;;2.85;2.40;;;34.60;51.20;;;;;;4993521;28;20026;-77
2022/07/02 12:32:08;;;;;;;3.05;2.65;;;34.80;50.60;;;;;;4993560;28;20412;-78
2022/07/02 12:34:43;;;;;;;4.38;3.03;;;34.70;50.00;;;;;;4993452;28;20030;-77
2022/07/02 12:37:34;;;;;;;4.38;3.00;;;34.70;50.70;;;;;;5001625;28;20018;-77
2022/07/02 12:40:18;;;;;;;3.13;2.20;;;34.80;51.50;;;;;;5014931;28;20086;-77
2022/07/02 12:43:05;;;;;;;3.13;2.78;;;35.00;51.40;;;;;;5032794;28;20048;-77
2022/07/02 12:45:33;;;;;;;8.52;3.65;;;35.10;50.90;;;;;;5032755;28;20029;-77
2022/07/02 12:48:16;;;;;;;2.95;2.58;;;35.20;50.40;;;;;;5032920;28;20026;-77
2022/07/02 12:50:45;;;;;;;5.10;2.40;;;35.30;50.80;;;;;;5032952;28;20025;-77
2022/07/02 12:53:20;;;;;;;3.78;3.13;;;35.30;49.20;;;;;;5033059;28;20029;-78
2022/07/02 12:56:02;;;;;;;4.97;2.47;;;35.40;49.00;;;;;;5030399;28;20479;-78
2022/07/02 12:58:29;;;;;;;5.03;2.58;;;35.50;48.00;;;;;;5015627;28;20069;-77
2022/07/02 13:00:56;;;;;;;2.72;2.50;;;35.50;47.10;;;;;;5016484;28;20025;-78
2022/07/02 13:03:24;;;;;;;4.63;2.50;;;35.50;48.20;;;;;;5016279;28;20392;-78
2022/07/02 13:05:55;;;;;;;2.70;2.55;;;35.70;47.70;;;;;;4998656;28;20058;-77